Terminal Aerodrome Forecast
Issued by NWS Wilmington, OH

Home | Current Version | Previous Version | Text Only | Print | Product List | Glossary On
Versions: 1 2 3 4 5 6 7 8 9 10 11 12 13 14 15 16 17 18 19 20 21
509
FTUS41 KILN 251513 AAA
TAFCVG
TAF AMD
KCVG 251513Z 2515/2618 17009KT P6SM SCT120 BKN200
     FM252300 15007KT P6SM VCSH BKN110
     FM260300 14007KT P6SM -SHRA BKN090
     FM260900 15006KT 5SM -SHRA OVC035
     FM261600 18010G17KT P6SM -SHRA OVC027=

USA.gov is the U.S. government's official web portal to all federal, state and local government web resources and services.